sensor_id;sensor_type;location;lat;lon;timestamp;temperature;humidity
45549;DHT22;31270;48.328;10.096;2022-09-13T00:00:52;12.70;99.90
45549;DHT22;31270;48.328;10.096;2022-09-13T00:03:19;12.70;99.90
45549;DHT22;31270;48.328;10.096;2022-09-13T00:05:45;12.70;99.90
45549;DHT22;31270;48.328;10.096;2022-09-13T00:08:12;12.70;99.90
45549;DHT22;31270;48.328;10.096;2022-09-13T00:10:39;12.70;99.90
45549;DHT22;31270;48.328;10.096;2022-09-13T00:13:06;12.70;99.90
45549;DHT22;31270;48.328;10.096;2022-09-13T00:15:33;12.60;99.90
45549;DHT22;31270;48.328;10.096;2022-09-13T00:17:58;12.60;99.90
45549;DHT22;31270;48.328;10.096;2022-09-13T00:20:24;12.60;99.90
45549;DHT22;31270;48.328;10.096;2022-09-13T00:22:50;12.50;99.90
45549;DHT22;31270;48.328;10.096;2022-09-13T00:25:17;12.50;99.90
45549;DHT22;31270;48.328;10.096;2022-09-13T00:27:44;12.50;99.90
45549;DHT22;31270;48.328;10.096;2022-09-13T00:30:10;12.50;99.90
45549;DHT22;31270;48.328;10.096;2022-09-13T00:32:37;12.50;99.90
45549;DHT22;31270;48.328;10.096;2022-09-13T00:35:05;12.40;99.90
45549;DHT22;31270;48.328;10.096;2022-09-13T00:37:31;12.40;99.90
45549;DHT22;31270;48.328;10.096;2022-09-13T00:39:59;12.50;99.90
45549;DHT22;31270;48.328;10.096;2022-09-13T00:42:27;12.40;99.90
45549;DHT22;31270;48.328;10.096;2022-09-13T00:47:25;12.30;99.90
45549;DHT22;31270;48.328;10.096;2022-09-13T00:50:10;12.30;99.90
45549;DHT22;31270;48.328;10.096;2022-09-13T00:52:39;12.30;99.90
45549;DHT22;31270;48.328;10.096;2022-09-13T00:55:20;12.20;99.90
45549;DHT22;31270;48.328;10.096;2022-09-13T00:57:47;12.20;99.90
45549;DHT22;31270;48.328;10.096;2022-09-13T01:00:17;12.20;99.90
45549;DHT22;31270;48.328;10.096;2022-09-13T01:02:49;12.10;99.90
45549;DHT22;31270;48.328;10.096;2022-09-13T01:05:21;12.10;99.90
45549;DHT22;31270;48.328;10.096;2022-09-13T01:07:48;12.10;99.90
45549;DHT22;31270;48.328;10.096;2022-09-13T01:10:14;12.10;99.90
45549;DHT22;31270;48.328;10.096;2022-09-13T01:12:54;12.10;99.90
45549;DHT22;31270;48.328;10.096;2022-09-13T01:15:20;12.00;99.90
45549;DHT22;31270;48.328;10.096;2022-09-13T01:17:47;12.00;99.90
45549;DHT22;31270;48.328;10.096;2022-09-13T01:20:14;12.00;99.90
45549;DHT22;31270;48.328;10.096;2022-09-13T01:23:06;12.00;99.90
45549;DHT22;31270;48.328;10.096;2022-09-13T01:31:30;11.90;99.90
45549;DHT22;31270;48.328;10.096;2022-09-13T01:34:27;11.90;99.90
45549;DHT22;31270;48.328;10.096;2022-09-13T01:42:35;11.80;99.90
45549;DHT22;31270;48.328;10.096;2022-09-13T01:45:10;11.80;99.90
45549;DHT22;31270;48.328;10.096;2022-09-13T01:55:45;11.70;99.90
45549;DHT22;31270;48.328;10.096;2022-09-13T01:58:40;11.70;99.90
45549;DHT22;31270;48.328;10.096;2022-09-13T02:01:13;11.60;99.90
45549;DHT22;31270;48.328;10.096;2022-09-13T02:03:54;11.60;99.90
45549;DHT22;31270;48.328;10.096;2022-09-13T02:06:48;11.60;99.90
45549;DHT22;31270;48.328;10.096;2022-09-13T02:09:20;11.60;99.90
45549;DHT22;31270;48.328;10.096;2022-09-13T02:11:51;11.50;99.90
45549;DHT22;31270;48.328;10.096;2022-09-13T02:14:23;11.50;99.90
45549;DHT22;31270;48.328;10.096;2022-09-13T02:17:05;11.50;99.90
45549;DHT22;31270;48.328;10.096;2022-09-13T02:19:42;11.50;99.90
45549;DHT22;31270;48.328;10.096;2022-09-13T02:22:13;11.50;99.90
45549;DHT22;31270;48.328;10.096;2022-09-13T02:24:41;11.50;99.90
45549;DHT22;31270;48.328;10.096;2022-09-13T02:27:14;11.50;99.90
45549;DHT22;31270;48.328;10.096;2022-09-13T02:29:44;11.50;99.90
45549;DHT22;31270;48.328;10.096;2022-09-13T02:33:03;11.50;99.90
45549;DHT22;31270;48.328;10.096;2022-09-13T02:35:11;11.50;99.90
45549;DHT22;31270;48.328;10.096;2022-09-13T02:37:40;11.50;99.90
45549;DHT22;31270;48.328;10.096;2022-09-13T02:40:11;11.40;99.90
45549;DHT22;31270;48.328;10.096;2022-09-13T02:42:59;11.30;99.90
45549;DHT22;31270;48.328;10.096;2022-09-13T02:45:32;11.30;99.90
45549;DHT22;31270;48.328;10.096;2022-09-13T02:48:03;11.30;99.90
45549;DHT22;31270;48.328;10.096;2022-09-13T03:01:25;11.20;99.90
45549;DHT22;31270;48.328;10.096;2022-09-13T03:03:51;11.20;99.90
45549;DHT22;31270;48.328;10.096;2022-09-13T03:06:28;11.20;99.90
45549;DHT22;31270;48.328;10.096;2022-09-13T03:08:57;11.20;99.90
45549;DHT22;31270;48.328;10.096;2022-09-13T03:11:27;11.20;99.90
45549;DHT22;31270;48.328;10.096;2022-09-13T03:22:07;11.00;99.90
45549;DHT22;31270;48.328;10.096;2022-09-13T03:25:03;11.00;99.90
45549;DHT22;31270;48.328;10.096;2022-09-13T03:30:05;11.00;99.90
45549;DHT22;31270;48.328;10.096;2022-09-13T03:32:58;11.00;99.90
45549;DHT22;31270;48.328;10.096;2022-09-13T03:38:14;10.90;99.90
45549;DHT22;31270;48.328;10.096;2022-09-13T03:40:48;10.90;99.90
45549;DHT22;31270;48.328;10.096;2022-09-13T03:43:48;10.90;99.90
45549;DHT22;31270;48.328;10.096;2022-09-13T03:46:20;10.90;99.90
45549;DHT22;31270;48.328;10.096;2022-09-13T03:48:48;10.90;99.90
45549;DHT22;31270;48.328;10.096;2022-09-13T03:51:14;10.90;99.90
45549;DHT22;31270;48.328;10.096;2022-09-13T03:53:51;11.00;99.90
45549;DHT22;31270;48.328;10.096;2022-09-13T03:56:18;11.00;99.90
45549;DHT22;31270;48.328;10.096;2022-09-13T03:58:48;11.00;99.90
45549;DHT22;31270;48.328;10.096;2022-09-13T04:01:19;10.90;99.90
45549;DHT22;31270;48.328;10.096;2022-09-13T04:03:44;10.90;99.90
45549;DHT22;31270;48.328;10.096;2022-09-13T04:06:10;10.90;99.90
45549;DHT22;31270;48.328;10.096;2022-09-13T04:08:36;10.90;99.90
45549;DHT22;31270;48.328;10.096;2022-09-13T04:11:01;10.90;99.90
45549;DHT22;31270;48.328;10.096;2022-09-13T04:13:27;10.90;99.90
45549;DHT22;31270;48.328;10.096;2022-09-13T04:15:53;11.00;99.90
45549;DHT22;31270;48.328;10.096;2022-09-13T04:18:19;11.00;99.90
45549;DHT22;31270;48.328;10.096;2022-09-13T04:20:56;11.00;99.90
45549;DHT22;31270;48.328;10.096;2022-09-13T04:23:22;10.90;99.90
45549;DHT22;31270;48.328;10.096;2022-09-13T04:25:48;11.10;99.90
45549;DHT22;31270;48.328;10.096;2022-09-13T04:28:18;10.90;99.90
45549;DHT22;31270;48.328;10.096;2022-09-13T04:30:45;10.90;99.90
45549;DHT22;31270;48.328;10.096;2022-09-13T04:33:12;11.00;99.90
45549;DHT22;31270;48.328;10.096;2022-09-13T04:35:39;11.00;99.90
45549;DHT22;31270;48.328;10.096;2022-09-13T04:38:06;11.00;99.90
45549;DHT22;31270;48.328;10.096;2022-09-13T04:40:32;11.00;99.90
45549;DHT22;31270;48.328;10.096;2022-09-13T04:43:00;11.10;99.90
45549;DHT22;31270;48.328;10.096;2022-09-13T04:45:26;11.00;99.90
45549;DHT22;31270;48.328;10.096;2022-09-13T04:47:53;11.00;99.90
45549;DHT22;31270;48.328;10.096;2022-09-13T04:50:21;10.90;99.90
45549;DHT22;31270;48.328;10.096;2022-09-13T04:52:47;11.00;99.90
45549;DHT22;31270;48.328;10.096;2022-09-13T04:55:13;10.90;99.90
45549;DHT22;31270;48.328;10.096;2022-09-13T04:57:39;10.90;99.90
45549;DHT22;31270;48.328;10.096;2022-09-13T05:00:06;11.00;99.90
45549;DHT22;31270;48.328;10.096;2022-09-13T05:02:32;10.90;99.90
45549;DHT22;31270;48.328;10.096;2022-09-13T05:04:58;10.90;99.90
45549;DHT22;31270;48.328;10.096;2022-09-13T05:07:24;10.90;99.90
45549;DHT22;31270;48.328;10.096;2022-09-13T05:09:49;10.90;99.90
45549;DHT22;31270;48.328;10.096;2022-09-13T05:12:15;10.90;99.90
45549;DHT22;31270;48.328;10.096;2022-09-13T05:14:40;11.00;99.90
45549;DHT22;31270;48.328;10.096;2022-09-13T05:17:07;11.00;99.90
45549;DHT22;31270;48.328;10.096;2022-09-13T05:19:33;11.10;99.90
45549;DHT22;31270;48.328;10.096;2022-09-13T05:22:00;11.00;99.90
45549;DHT22;31270;48.328;10.096;2022-09-13T05:24:26;11.00;99.90
45549;DHT22;31270;48.328;10.096;2022-09-13T05:26:51;11.00;99.90
45549;DHT22;31270;48.328;10.096;2022-09-13T05:29:17;11.00;99.90
45549;DHT22;31270;48.328;10.096;2022-09-13T05:31:43;11.10;99.90
45549;DHT22;31270;48.328;10.096;2022-09-13T05:34:17;11.10;99.90
45549;DHT22;31270;48.328;10.096;2022-09-13T05:36:44;11.20;99.90
45549;DHT22;31270;48.328;10.096;2022-09-13T05:39:14;11.20;99.90
45549;DHT22;31270;48.328;10.096;2022-09-13T05:41:42;11.30;99.90
45549;DHT22;31270;48.328;10.096;2022-09-13T05:44:08;11.40;99.90
45549;DHT22;31270;48.328;10.096;2022-09-13T05:46:34;11.50;99.90
45549;DHT22;31270;48.328;10.096;2022-09-13T05:49:00;11.50;99.90
45549;DHT22;31270;48.328;10.096;2022-09-13T05:51:25;11.50;99.90
45549;DHT22;31270;48.328;10.096;2022-09-13T05:53:52;11.70;99.90
45549;DHT22;31270;48.328;10.096;2022-09-13T05:56:28;11.70;99.90
45549;DHT22;31270;48.328;10.096;2022-09-13T05:58:55;11.70;99.90
45549;DHT22;31270;48.328;10.096;2022-09-13T06:01:23;11.80;99.90
45549;DHT22;31270;48.328;10.096;2022-09-13T06:03:51;11.90;99.90
45549;DHT22;31270;48.328;10.096;2022-09-13T06:06:17;12.20;99.90
45549;DHT22;31270;48.328;10.096;2022-09-13T06:08:44;12.20;99.90
45549;DHT22;31270;48.328;10.096;2022-09-13T06:11:11;12.40;99.90
45549;DHT22;31270;48.328;10.096;2022-09-13T06:13:38;12.80;99.90
45549;DHT22;31270;48.328;10.096;2022-09-13T06:16:06;12.80;99.90
45549;DHT22;31270;48.328;10.096;2022-09-13T06:18:33;12.90;99.90
45549;DHT22;31270;48.328;10.096;2022-09-13T06:21:06;13.10;99.90
45549;DHT22;31270;48.328;10.096;2022-09-13T06:23:33;13.10;99.90
45549;DHT22;31270;48.328;10.096;2022-09-13T06:26:03;13.20;99.90
45549;DHT22;31270;48.328;10.096;2022-09-13T06:28:29;13.40;99.90
45549;DHT22;31270;48.328;10.096;2022-09-13T06:31:03;13.50;99.90
45549;DHT22;31270;48.328;10.096;2022-09-13T06:33:31;13.60;99.90
45549;DHT22;31270;48.328;10.096;2022-09-13T06:36:03;13.70;99.90
45549;DHT22;31270;48.328;10.096;2022-09-13T06:38:29;13.80;99.90
45549;DHT22;31270;48.328;10.096;2022-09-13T06:41:06;14.00;99.90
45549;DHT22;31270;48.328;10.096;2022-09-13T06:43:33;13.80;99.90
45549;DHT22;31270;48.328;10.096;2022-09-13T06:46:04;13.90;99.90
45549;DHT22;31270;48.328;10.096;2022-09-13T06:48:35;14.00;99.90
45549;DHT22;31270;48.328;10.096;2022-09-13T06:51:04;14.10;99.90
45549;DHT22;31270;48.328;10.096;2022-09-13T06:53:30;14.10;99.90
45549;DHT22;31270;48.328;10.096;2022-09-13T06:56:15;14.20;99.90
45549;DHT22;31270;48.328;10.096;2022-09-13T06:58:43;14.10;99.90
45549;DHT22;31270;48.328;10.096;2022-09-13T07:01:16;14.20;99.90
45549;DHT22;31270;48.328;10.096;2022-09-13T07:03:53;14.20;99.90
45549;DHT22;31270;48.328;10.096;2022-09-13T07:06:22;14.30;99.90
45549;DHT22;31270;48.328;10.096;2022-09-13T07:08:50;14.40;99.90
45549;DHT22;31270;48.328;10.096;2022-09-13T07:11:18;14.60;99.90
45549;DHT22;31270;48.328;10.096;2022-09-13T07:13:51;14.70;99.90
45549;DHT22;31270;48.328;10.096;2022-09-13T07:16:19;15.00;99.90
45549;DHT22;31270;48.328;10.096;2022-09-13T07:18:50;15.20;99.90
45549;DHT22;31270;48.328;10.096;2022-09-13T07:21:16;15.40;99.90
45549;DHT22;31270;48.328;10.096;2022-09-13T07:23:42;15.50;99.90
45549;DHT22;31270;48.328;10.096;2022-09-13T07:26:08;15.60;99.90
45549;DHT22;31270;48.328;10.096;2022-09-13T07:28:45;15.70;99.90
45549;DHT22;31270;48.328;10.096;2022-09-13T07:31:23;16.00;99.90
45549;DHT22;31270;48.328;10.096;2022-09-13T07:33:54;16.00;99.90
45549;DHT22;31270;48.328;10.096;2022-09-13T07:36:20;16.10;99.90
45549;DHT22;31270;48.328;10.096;2022-09-13T07:38:46;16.20;99.90
45549;DHT22;31270;48.328;10.096;2022-09-13T07:41:17;16.40;99.90
45549;DHT22;31270;48.328;10.096;2022-09-13T07:43:44;16.50;99.90
45549;DHT22;31270;48.328;10.096;2022-09-13T07:46:10;16.80;99.90
45549;DHT22;31270;48.328;10.096;2022-09-13T07:48:38;17.10;99.90
45549;DHT22;31270;48.328;10.096;2022-09-13T07:53:35;17.50;99.90
45549;DHT22;31270;48.328;10.096;2022-09-13T07:56:03;17.70;99.90
45549;DHT22;31270;48.328;10.096;2022-09-13T07:58:29;18.00;99.90
45549;DHT22;31270;48.328;10.096;2022-09-13T08:03:36;18.30;99.90
45549;DHT22;31270;48.328;10.096;2022-09-13T08:06:03;18.50;99.90
45549;DHT22;31270;48.328;10.096;2022-09-13T08:08:29;18.50;99.90
45549;DHT22;31270;48.328;10.096;2022-09-13T08:10:56;18.60;99.90
45549;DHT22;31270;48.328;10.096;2022-09-13T08:13:22;18.80;99.90
45549;DHT22;31270;48.328;10.096;2022-09-13T08:15:48;18.90;99.90
45549;DHT22;31270;48.328;10.096;2022-09-13T08:18:18;19.00;99.90
45549;DHT22;31270;48.328;10.096;2022-09-13T08:20:43;19.10;99.90
45549;DHT22;31270;48.328;10.096;2022-09-13T08:23:10;19.40;99.90
45549;DHT22;31270;48.328;10.096;2022-09-13T08:25:37;19.40;99.90
45549;DHT22;31270;48.328;10.096;2022-09-13T08:28:13;19.40;99.90
45549;DHT22;31270;48.328;10.096;2022-09-13T08:30:40;19.50;99.90
45549;DHT22;31270;48.328;10.096;2022-09-13T08:33:08;19.80;99.90
45549;DHT22;31270;48.328;10.096;2022-09-13T08:35:34;19.80;99.90
45549;DHT22;31270;48.328;10.096;2022-09-13T08:38:00;19.90;99.90
45549;DHT22;31270;48.328;10.096;2022-09-13T08:40:46;20.10;99.90
45549;DHT22;31270;48.328;10.096;2022-09-13T08:46:22;20.60;99.90
45549;DHT22;31270;48.328;10.096;2022-09-13T08:48:51;20.70;99.90
45549;DHT22;31270;48.328;10.096;2022-09-13T08:51:31;20.80;99.90
45549;DHT22;31270;48.328;10.096;2022-09-13T08:53:59;21.10;99.90
45549;DHT22;31270;48.328;10.096;2022-09-13T08:56:40;21.30;99.90
45549;DHT22;31270;48.328;10.096;2022-09-13T09:02:34;21.50;99.90
45549;DHT22;31270;48.328;10.096;2022-09-13T09:10:36;22.30;99.90
45549;DHT22;31270;48.328;10.096;2022-09-13T09:13:28;22.40;99.90
45549;DHT22;31270;48.328;10.096;2022-09-13T09:18:43;22.70;99.90
45549;DHT22;31270;48.328;10.096;2022-09-13T09:21:17;22.70;99.90
45549;DHT22;31270;48.328;10.096;2022-09-13T09:23:53;23.00;99.90
45549;DHT22;31270;48.328;10.096;2022-09-13T09:26:24;23.20;99.90
45549;DHT22;31270;48.328;10.096;2022-09-13T09:28:55;23.40;99.90
45549;DHT22;31270;48.328;10.096;2022-09-13T09:36:58;23.80;99.90
45549;DHT22;31270;48.328;10.096;2022-09-13T09:39:29;24.00;99.90
45549;DHT22;31270;48.328;10.096;2022-09-13T09:41:58;24.20;99.90
45549;DHT22;31270;48.328;10.096;2022-09-13T09:44:28;24.40;99.90
45549;DHT22;31270;48.328;10.096;2022-09-13T09:49:38;24.60;99.90
45549;DHT22;31270;48.328;10.096;2022-09-13T09:52:31;24.80;99.90
45549;DHT22;31270;48.328;10.096;2022-09-13T09:57:59;25.20;99.90
45549;DHT22;31270;48.328;10.096;2022-09-13T10:00:29;25.40;99.90
45549;DHT22;31270;48.328;10.096;2022-09-13T10:03:06;25.50;99.90
45549;DHT22;31270;48.328;10.096;2022-09-13T10:05:34;25.70;99.90
45549;DHT22;31270;48.328;10.096;2022-09-13T10:08:02;26.20;99.90
45549;DHT22;31270;48.328;10.096;2022-09-13T10:10:43;26.30;99.90
45549;DHT22;31270;48.328;10.096;2022-09-13T10:13:18;26.50;99.90
45549;DHT22;31270;48.328;10.096;2022-09-13T10:15:53;26.80;99.90
45549;DHT22;31270;48.328;10.096;2022-09-13T10:18:21;26.90;99.90
45549;DHT22;31270;48.328;10.096;2022-09-13T10:21:06;26.80;99.90
45549;DHT22;31270;48.328;10.096;2022-09-13T10:23:33;26.90;99.90
45549;DHT22;31270;48.328;10.096;2022-09-13T10:26:06;26.90;99.90
45549;DHT22;31270;48.328;10.096;2022-09-13T10:28:35;27.00;99.90
45549;DHT22;31270;48.328;10.096;2022-09-13T10:31:07;27.00;99.90
45549;DHT22;31270;48.328;10.096;2022-09-13T10:33:43;27.30;99.90
45549;DHT22;31270;48.328;10.096;2022-09-13T10:36:15;27.60;99.90
45549;DHT22;31270;48.328;10.096;2022-09-13T10:39:03;27.80;99.90
45549;DHT22;31270;48.328;10.096;2022-09-13T10:41:34;27.80;99.90
45549;DHT22;31270;48.328;10.096;2022-09-13T10:44:05;28.10;99.90
45549;DHT22;31270;48.328;10.096;2022-09-13T10:46:37;28.20;99.90
45549;DHT22;31270;48.328;10.096;2022-09-13T10:49:04;28.10;99.90
45549;DHT22;31270;48.328;10.096;2022-09-13T10:51:35;28.20;99.90
45549;DHT22;31270;48.328;10.096;2022-09-13T10:54:32;28.30;99.90
45549;DHT22;31270;48.328;10.096;2022-09-13T10:56:58;28.20;99.90
45549;DHT22;31270;48.328;10.096;2022-09-13T10:59:26;28.20;99.90
45549;DHT22;31270;48.328;10.096;2022-09-13T11:08:20;28.00;99.90
45549;DHT22;31270;48.328;10.096;2022-09-13T11:19:06;28.20;99.90
45549;DHT22;31270;48.328;10.096;2022-09-13T11:24:31;28.40;99.90
45549;DHT22;31270;48.328;10.096;2022-09-13T11:27:26;28.20;99.90
45549;DHT22;31270;48.328;10.096;2022-09-13T11:30:18;28.20;99.90
45549;DHT22;31270;48.328;10.096;2022-09-13T11:41:45;29.10;99.90
45549;DHT22;31270;48.328;10.096;2022-09-13T11:49:29;29.60;99.90
45549;DHT22;31270;48.328;10.096;2022-09-13T11:55:16;29.90;99.90
45549;DHT22;31270;48.328;10.096;2022-09-13T11:58:12;30.10;99.90
45549;DHT22;31270;48.328;10.096;2022-09-13T12:00:43;30.20;99.90
45549;DHT22;31270;48.328;10.096;2022-09-13T12:03:24;30.40;99.90
45549;DHT22;31270;48.328;10.096;2022-09-13T12:05:58;30.50;99.90
45549;DHT22;31270;48.328;10.096;2022-09-13T12:08:30;30.40;99.90
45549;DHT22;31270;48.328;10.096;2022-09-13T12:11:02;30.50;99.90
45549;DHT22;31270;48.328;10.096;2022-09-13T12:13:39;30.50;99.90
45549;DHT22;31270;48.328;10.096;2022-09-13T12:16:08;30.40;99.90
45549;DHT22;31270;48.328;10.096;2022-09-13T12:18:40;30.30;99.90
45549;DHT22;31270;48.328;10.096;2022-09-13T12:21:11;30.70;99.90
45549;DHT22;31270;48.328;10.096;2022-09-13T12:23:42;30.80;99.90
45549;DHT22;31270;48.328;10.096;2022-09-13T12:26:29;31.00;99.90
45549;DHT22;31270;48.328;10.096;2022-09-13T12:28:58;31.00;99.90
45549;DHT22;31270;48.328;10.096;2022-09-13T12:31:28;30.60;99.90
45549;DHT22;31270;48.328;10.096;2022-09-13T12:33:54;30.80;99.90
45549;DHT22;31270;48.328;10.096;2022-09-13T12:47:53;31.00;99.90
45549;DHT22;31270;48.328;10.096;2022-09-13T12:56:30;31.00;99.20
45549;DHT22;31270;48.328;10.096;2022-09-13T13:01:33;31.30;98.70
45549;DHT22;31270;48.328;10.096;2022-09-13T13:04:22;31.00;95.70
45549;DHT22;31270;48.328;10.096;2022-09-13T13:06:56;31.10;98.30
45549;DHT22;31270;48.328;10.096;2022-09-13T13:09:45;31.10;97.90
45549;DHT22;31270;48.328;10.096;2022-09-13T13:12:33;30.90;96.40
45549;DHT22;31270;48.328;10.096;2022-09-13T13:15:06;31.00;97.60
45549;DHT22;31270;48.328;10.096;2022-09-13T13:17:50;31.00;97.30
45549;DHT22;31270;48.328;10.096;2022-09-13T13:23:34;30.90;94.90
45549;DHT22;31270;48.328;10.096;2022-09-13T13:31:09;30.50;95.20
45549;DHT22;31270;48.328;10.096;2022-09-13T13:33:55;30.50;98.30
45549;DHT22;31270;48.328;10.096;2022-09-13T13:39:12;30.40;97.00
45549;DHT22;31270;48.328;10.096;2022-09-13T13:41:43;30.30;95.90
45549;DHT22;31270;48.328;10.096;2022-09-13T13:46:40;30.00;96.10
45549;DHT22;31270;48.328;10.096;2022-09-13T13:55:02;29.60;94.30
45549;DHT22;31270;48.328;10.096;2022-09-13T13:57:32;29.20;95.80
45549;DHT22;31270;48.328;10.096;2022-09-13T14:00:18;29.00;95.90
45549;DHT22;31270;48.328;10.096;2022-09-13T14:05:53;28.60;97.90
45549;DHT22;31270;48.328;10.096;2022-09-13T14:08:45;28.50;99.30
45549;DHT22;31270;48.328;10.096;2022-09-13T14:19:59;28.60;99.90
45549;DHT22;31270;48.328;10.096;2022-09-13T14:22:26;28.50;99.90
45549;DHT22;31270;48.328;10.096;2022-09-13T14:27:46;28.10;99.90
45549;DHT22;31270;48.328;10.096;2022-09-13T14:30:21;28.10;99.90
45549;DHT22;31270;48.328;10.096;2022-09-13T14:32:50;28.10;99.90
45549;DHT22;31270;48.328;10.096;2022-09-13T14:35:35;28.00;99.90
45549;DHT22;31270;48.328;10.096;2022-09-13T14:40:37;27.80;99.90
45549;DHT22;31270;48.328;10.096;2022-09-13T14:43:14;27.70;99.90
45549;DHT22;31270;48.328;10.096;2022-09-13T14:45:42;27.70;99.60
45549;DHT22;31270;48.328;10.096;2022-09-13T14:50:47;27.80;99.90
45549;DHT22;31270;48.328;10.096;2022-09-13T14:53:19;27.80;99.90
45549;DHT22;31270;48.328;10.096;2022-09-13T14:55:51;27.80;99.90
45549;DHT22;31270;48.328;10.096;2022-09-13T14:58:38;27.70;99.90
45549;DHT22;31270;48.328;10.096;2022-09-13T15:01:09;27.70;98.50
45549;DHT22;31270;48.328;10.096;2022-09-13T15:03:35;27.60;99.60
45549;DHT22;31270;48.328;10.096;2022-09-13T15:06:05;27.60;99.90
45549;DHT22;31270;48.328;10.096;2022-09-13T15:11:04;27.60;99.90
45549;DHT22;31270;48.328;10.096;2022-09-13T15:13:31;27.60;99.90
45549;DHT22;31270;48.328;10.096;2022-09-13T15:15:57;27.60;99.90
45549;DHT22;31270;48.328;10.096;2022-09-13T15:18:30;27.60;99.90
45549;DHT22;31270;48.328;10.096;2022-09-13T15:20:59;27.50;99.90
45549;DHT22;31270;48.328;10.096;2022-09-13T15:26:19;27.30;99.90
45549;DHT22;31270;48.328;10.096;2022-09-13T15:31:23;27.10;99.90
45549;DHT22;31270;48.328;10.096;2022-09-13T15:36:40;27.10;99.70
45549;DHT22;31270;48.328;10.096;2022-09-13T15:39:13;27.10;99.40
45549;DHT22;31270;48.328;10.096;2022-09-13T15:41:53;27.00;99.90
45549;DHT22;31270;48.328;10.096;2022-09-13T15:44:20;26.90;98.60
45549;DHT22;31270;48.328;10.096;2022-09-13T15:46:48;26.80;98.50
45549;DHT22;31270;48.328;10.096;2022-09-13T15:49:18;26.70;98.90
45549;DHT22;31270;48.328;10.096;2022-09-13T15:51:45;26.60;99.70
45549;DHT22;31270;48.328;10.096;2022-09-13T15:54:16;26.50;99.30
45549;DHT22;31270;48.328;10.096;2022-09-13T15:56:47;26.40;99.70
45549;DHT22;31270;48.328;10.096;2022-09-13T15:59:20;26.30;99.90
45549;DHT22;31270;48.328;10.096;2022-09-13T16:01:50;26.30;99.90
45549;DHT22;31270;48.328;10.096;2022-09-13T16:04:16;26.50;99.90
45549;DHT22;31270;48.328;10.096;2022-09-13T16:06:42;26.30;99.90
45549;DHT22;31270;48.328;10.096;2022-09-13T16:09:17;26.30;99.90
45549;DHT22;31270;48.328;10.096;2022-09-13T16:11:45;26.30;99.90
45549;DHT22;31270;48.328;10.096;2022-09-13T16:14:11;26.20;99.90
45549;DHT22;31270;48.328;10.096;2022-09-13T16:16:37;26.10;99.90
45549;DHT22;31270;48.328;10.096;2022-09-13T16:19:02;25.90;99.90
45549;DHT22;31270;48.328;10.096;2022-09-13T16:21:29;25.80;99.90
45549;DHT22;31270;48.328;10.096;2022-09-13T16:23:55;25.80;99.90
45549;DHT22;31270;48.328;10.096;2022-09-13T16:26:20;25.60;99.90
45549;DHT22;31270;48.328;10.096;2022-09-13T16:28:46;25.40;99.90
45549;DHT22;31270;48.328;10.096;2022-09-13T16:31:12;25.30;99.90
45549;DHT22;31270;48.328;10.096;2022-09-13T16:33:39;25.20;99.90
45549;DHT22;31270;48.328;10.096;2022-09-13T16:36:05;25.10;99.90
45549;DHT22;31270;48.328;10.096;2022-09-13T16:38:30;25.00;99.90
45549;DHT22;31270;48.328;10.096;2022-09-13T16:40:56;24.90;99.90
45549;DHT22;31270;48.328;10.096;2022-09-13T16:43:22;24.80;99.90
45549;DHT22;31270;48.328;10.096;2022-09-13T16:45:47;24.60;99.90
45549;DHT22;31270;48.328;10.096;2022-09-13T16:48:15;24.60;99.90
45549;DHT22;31270;48.328;10.096;2022-09-13T16:50:41;24.60;99.90
45549;DHT22;31270;48.328;10.096;2022-09-13T16:53:07;24.40;99.90
45549;DHT22;31270;48.328;10.096;2022-09-13T16:55:33;24.30;99.90
45549;DHT22;31270;48.328;10.096;2022-09-13T16:57:58;24.20;99.90
45549;DHT22;31270;48.328;10.096;2022-09-13T17:00:24;24.10;99.90
45549;DHT22;31270;48.328;10.096;2022-09-13T17:02:54;24.10;99.90
45549;DHT22;31270;48.328;10.096;2022-09-13T17:05:20;24.00;99.90
45549;DHT22;31270;48.328;10.096;2022-09-13T17:07:46;23.90;99.90
45549;DHT22;31270;48.328;10.096;2022-09-13T17:10:12;23.80;99.90
45549;DHT22;31270;48.328;10.096;2022-09-13T17:12:37;23.60;99.90
45549;DHT22;31270;48.328;10.096;2022-09-13T17:15:04;23.60;99.90
45549;DHT22;31270;48.328;10.096;2022-09-13T17:17:32;23.50;99.90
45549;DHT22;31270;48.328;10.096;2022-09-13T17:20:03;23.40;99.90
45549;DHT22;31270;48.328;10.096;2022-09-13T17:22:30;23.30;99.90
45549;DHT22;31270;48.328;10.096;2022-09-13T17:24:55;23.20;99.90
45549;DHT22;31270;48.328;10.096;2022-09-13T17:27:21;23.10;99.90
45549;DHT22;31270;48.328;10.096;2022-09-13T17:29:46;23.00;99.90
45549;DHT22;31270;48.328;10.096;2022-09-13T17:32:12;22.90;99.90
45549;DHT22;31270;48.328;10.096;2022-09-13T17:34:38;22.90;99.90
45549;DHT22;31270;48.328;10.096;2022-09-13T17:37:03;22.80;99.90
45549;DHT22;31270;48.328;10.096;2022-09-13T17:39:31;22.70;99.90
45549;DHT22;31270;48.328;10.096;2022-09-13T17:41:57;22.60;99.90
45549;DHT22;31270;48.328;10.096;2022-09-13T17:44:23;22.60;99.90
45549;DHT22;31270;48.328;10.096;2022-09-13T17:46:48;22.40;99.90
45549;DHT22;31270;48.328;10.096;2022-09-13T17:49:14;22.40;99.90
45549;DHT22;31270;48.328;10.096;2022-09-13T17:51:39;22.30;99.90
45549;DHT22;31270;48.328;10.096;2022-09-13T17:54:07;22.30;99.90
45549;DHT22;31270;48.328;10.096;2022-09-13T17:56:40;22.20;99.90
45549;DHT22;31270;48.328;10.096;2022-09-13T18:01:42;22.00;99.90
45549;DHT22;31270;48.328;10.096;2022-09-13T18:04:09;21.90;99.90
45549;DHT22;31270;48.328;10.096;2022-09-13T18:06:36;21.80;99.90
45549;DHT22;31270;48.328;10.096;2022-09-13T18:09:02;21.80;99.90
45549;DHT22;31270;48.328;10.096;2022-09-13T18:11:28;21.70;99.90
45549;DHT22;31270;48.328;10.096;2022-09-13T18:13:53;21.60;99.90
45549;DHT22;31270;48.328;10.096;2022-09-13T18:16:21;21.60;99.90
45549;DHT22;31270;48.328;10.096;2022-09-13T18:18:49;21.50;99.90
45549;DHT22;31270;48.328;10.096;2022-09-13T18:21:16;21.50;99.90
45549;DHT22;31270;48.328;10.096;2022-09-13T18:23:46;21.40;99.90
45549;DHT22;31270;48.328;10.096;2022-09-13T18:26:15;21.40;99.90
45549;DHT22;31270;48.328;10.096;2022-09-13T18:28:42;21.30;99.90
45549;DHT22;31270;48.328;10.096;2022-09-13T18:31:12;21.30;99.90
45549;DHT22;31270;48.328;10.096;2022-09-13T18:33:38;21.30;99.90
45549;DHT22;31270;48.328;10.096;2022-09-13T18:38:36;21.20;99.90
45549;DHT22;31270;48.328;10.096;2022-09-13T18:41:13;21.10;99.90
45549;DHT22;31270;48.328;10.096;2022-09-13T18:43:41;21.10;99.90